createdAt,value
2022-08-05T00:02:27.853Z,9.17
2022-08-05T00:04:56.182Z,8.03
2022-08-05T00:07:59.111Z,5.00
2022-08-05T00:10:10.953Z,7.80
2022-08-05T00:12:55.873Z,5.90
2022-08-05T00:15:55.393Z,6.73
2022-08-05T00:18:21.776Z,6.77
2022-08-05T00:20:50.712Z,3.97
2022-08-05T00:23:44.594Z,5.50
2022-08-05T00:26:05.530Z,4.77
2022-08-05T00:28:32.987Z,7.90
2022-08-05T00:31:02.934Z,4.10
2022-08-05T00:34:53.478Z,4.53
2022-08-05T00:37:12.461Z,4.97
2022-08-05T00:39:13.459Z,5.57
2022-08-05T00:41:52.232Z,6.20
2022-08-05T00:44:30.826Z,4.13
2022-08-05T00:47:02.217Z,5.23
2022-08-05T00:49:44.670Z,5.00
2022-08-05T00:52:28.682Z,6.00
2022-08-05T00:54:56.292Z,5.33
2022-08-05T00:57:25.196Z,5.40
2022-08-05T00:59:58.448Z,4.93
2022-08-05T01:02:25.250Z,5.03
2022-08-05T01:04:52.008Z,5.10
2022-08-05T01:07:19.375Z,8.13
2022-08-05T01:09:46.277Z,6.23
2022-08-05T01:12:25.162Z,4.90
2022-08-05T01:15:05.201Z,6.50
2022-08-05T01:17:53.510Z,5.23
2022-08-05T01:20:36.990Z,7.33
2022-08-05T01:23:24.894Z,4.40
2022-08-05T01:26:26.235Z,5.37
2022-08-05T01:29:05.053Z,7.73
2022-08-05T01:31:44.970Z,4.87
2022-08-05T01:34:32.883Z,5.50
2022-08-05T01:37:07.809Z,4.73
2022-08-05T01:39:47.311Z,4.00
2022-08-05T01:42:19.417Z,7.27
2022-08-05T01:44:53.910Z,6.17
2022-08-05T01:47:24.110Z,6.83
2022-08-05T01:50:02.122Z,4.40
2022-08-05T01:52:32.452Z,4.47
2022-08-05T01:55:04.696Z,5.43
2022-08-05T01:58:10.983Z,5.03
2022-08-05T02:00:30.541Z,5.83
2022-08-05T02:03:36.050Z,5.43
2022-08-05T02:06:33.530Z,4.83
2022-08-05T02:08:58.004Z,5.03
2022-08-05T02:11:33.456Z,4.60
2022-08-05T02:14:12.966Z,4.90
2022-08-05T02:16:46.898Z,5.57
2022-08-05T02:19:33.481Z,5.67
2022-08-05T02:22:05.354Z,5.50
2022-08-05T02:24:38.100Z,6.33
2022-08-05T02:27:10.412Z,8.20
2022-08-05T02:29:59.199Z,4.37
2022-08-05T02:32:31.516Z,4.40
2022-08-05T02:35:14.220Z,5.33
2022-08-05T02:37:47.661Z,4.67
2022-08-05T02:40:21.659Z,5.70
2022-08-05T02:42:53.053Z,5.57
2022-08-05T02:45:24.262Z,4.23
2022-08-05T02:48:07.545Z,4.20
2022-08-05T02:50:43.641Z,3.73
2022-08-05T02:53:18.824Z,4.17
2022-08-05T02:55:55.259Z,4.43
2022-08-05T02:58:28.775Z,4.50
2022-08-05T03:01:00.862Z,5.40
2022-08-05T03:03:33.965Z,5.33
2022-08-05T03:06:54.539Z,5.43
2022-08-05T03:09:07.791Z,5.67
2022-08-05T03:11:56.921Z,4.57
2022-08-05T03:14:21.821Z,3.60
2022-08-05T03:16:48.901Z,4.27
2022-08-05T03:19:33.440Z,5.83
2022-08-05T03:22:01.672Z,4.40
2022-08-05T03:24:30.774Z,5.90
2022-08-05T03:27:00.101Z,5.90
2022-08-05T03:29:44.745Z,6.37
2022-08-05T03:32:15.750Z,4.00
2022-08-05T03:34:50.625Z,6.07
2022-08-05T03:37:19.570Z,5.87
2022-08-05T03:39:59.067Z,5.00
2022-08-05T03:42:29.107Z,6.20
2022-08-05T03:44:58.821Z,7.10
2022-08-05T03:47:30.305Z,5.67
2022-08-05T03:49:57.793Z,4.60
2022-08-05T03:52:38.778Z,6.27
2022-08-05T03:56:00.987Z,7.70
2022-08-05T03:58:12.667Z,9.00
2022-08-05T04:00:42.072Z,6.23
2022-08-05T04:03:15.046Z,6.83
2022-08-05T04:05:59.214Z,6.37
2022-08-05T04:08:30.199Z,9.30
2022-08-05T04:11:04.276Z,5.63
2022-08-05T04:13:49.825Z,6.83
2022-08-05T04:16:24.331Z,8.40
2022-08-05T04:18:54.343Z,6.40
2022-08-05T04:22:05.306Z,6.13
2022-08-05T04:24:19.653Z,8.30
2022-08-05T04:26:50.343Z,5.90
2022-08-05T04:29:17.422Z,5.77
2022-08-05T04:31:44.614Z,6.60
2022-08-05T04:34:18.407Z,7.67
2022-08-05T04:36:58.981Z,6.40
2022-08-05T04:39:27.406Z,7.30
2022-08-05T04:41:55.445Z,5.90
2022-08-05T04:44:29.566Z,7.27
2022-08-05T04:47:09.385Z,7.93
2022-08-05T04:50:02.582Z,6.87
2022-08-05T04:52:27.442Z,6.43
2022-08-05T04:54:57.163Z,7.77
2022-08-05T04:57:28.753Z,8.03
2022-08-05T04:59:58.592Z,6.17
2022-08-05T05:02:36.766Z,4.03
2022-08-05T05:05:26.056Z,7.23
2022-08-05T05:08:01.469Z,8.33
2022-08-05T05:10:42.207Z,6.83
2022-08-05T05:13:22.788Z,8.00
2022-08-05T05:15:57.544Z,7.77
2022-08-05T05:18:33.408Z,8.27
2022-08-05T05:21:02.078Z,8.97
2022-08-05T05:24:01.813Z,8.03
2022-08-05T05:26:17.066Z,8.57
2022-08-05T05:28:44.950Z,6.93
2022-08-05T05:31:12.339Z,6.33
2022-08-05T05:33:59.783Z,9.97
2022-08-05T05:36:28.821Z,7.73
2022-08-05T05:38:57.774Z,7.73
2022-08-05T05:41:24.743Z,6.97
2022-08-05T05:43:56.953Z,8.63
2022-08-05T05:46:26.791Z,9.23
2022-08-05T05:48:53.702Z,8.00
2022-08-05T05:51:22.384Z,7.53
2022-08-05T05:53:57.865Z,8.53
2022-08-05T05:56:34.832Z,7.87
2022-08-05T05:59:05.345Z,8.03
2022-08-05T06:01:37.761Z,8.23
2022-08-05T06:04:14.323Z,7.80
2022-08-05T06:06:47.507Z,8.27
2022-08-05T06:09:25.757Z,9.17
2022-08-05T06:12:01.130Z,8.47
2022-08-05T06:14:30.975Z,9.83
2022-08-05T06:16:58.444Z,9.00
2022-08-05T06:19:34.774Z,7.70
2022-08-05T06:22:06.765Z,9.50
2022-08-05T06:24:35.004Z,9.07
2022-08-05T06:27:02.314Z,8.60
2022-08-05T06:29:46.311Z,10.47
2022-08-05T06:32:26.302Z,9.97
2022-08-05T06:34:57.843Z,10.50
2022-08-05T06:37:55.686Z,10.17
2022-08-05T06:40:18.468Z,12.33
2022-08-05T06:42:51.573Z,9.87
2022-08-05T06:45:44.486Z,11.20
2022-08-05T06:48:36.928Z,11.07
2022-08-05T06:50:55.330Z,11.43
2022-08-05T06:53:22.630Z,12.43
2022-08-05T06:55:59.639Z,12.03
2022-08-05T07:01:15.215Z,12.33
2022-08-05T07:03:48.078Z,12.67
2022-08-05T07:06:15.384Z,13.37
2022-08-05T07:08:47.660Z,12.87
2022-08-05T07:11:22.122Z,15.70
2022-08-05T07:14:20.276Z,13.93
2022-08-05T07:17:59.120Z,13.70
2022-08-05T07:22:28.646Z,12.27
2022-08-05T07:25:22.023Z,12.33
2022-08-05T07:27:58.798Z,12.40
2022-08-05T07:30:39.701Z,12.50
2022-08-05T07:33:15.682Z,12.37
2022-08-05T07:36:03.870Z,15.10
2022-08-05T07:38:42.510Z,12.77
2022-08-05T07:41:35.215Z,13.03
2022-08-05T07:44:00.506Z,15.83
2022-08-05T07:46:29.440Z,13.93
2022-08-05T07:49:03.075Z,11.33
2022-08-05T07:51:40.611Z,12.33
2022-08-05T07:54:15.164Z,13.17
2022-08-05T07:57:01.749Z,12.60
2022-08-05T07:59:39.058Z,14.70
2022-08-05T08:02:15.694Z,14.40
2022-08-05T08:04:49.231Z,12.77
2022-08-05T08:07:22.755Z,12.43
2022-08-05T08:09:52.335Z,12.83
2022-08-05T08:12:35.036Z,14.17
2022-08-05T08:15:09.647Z,12.00
2022-08-05T08:17:46.239Z,12.50
2022-08-05T08:20:44.352Z,13.67
2022-08-05T08:24:02.892Z,12.47
2022-08-05T08:26:00.928Z,12.55
2022-08-05T08:28:36.104Z,14.50
2022-08-05T08:31:09.493Z,18.30
2022-08-05T08:33:41.743Z,15.03
2022-08-05T08:38:56.781Z,20.20
2022-08-05T08:41:51.055Z,18.20
2022-08-05T08:45:16.264Z,18.27
2022-08-05T08:47:47.198Z,18.00
2022-08-05T08:50:14.491Z,18.83
2022-08-05T08:52:51.696Z,25.90
2022-08-05T08:56:01.825Z,18.73
2022-08-05T08:58:09.774Z,25.13
2022-08-05T09:00:37.135Z,23.57
2022-08-05T09:03:06.728Z,25.50
2022-08-05T09:05:38.356Z,25.47
2022-08-05T09:08:26.509Z,28.40
2022-08-05T09:10:53.636Z,29.77
2022-08-05T09:13:20.550Z,26.63
2022-08-05T09:15:51.312Z,28.03
2022-08-05T09:18:18.504Z,33.03
2022-08-05T09:20:47.032Z,30.80
2022-08-05T09:23:18.808Z,32.13
2022-08-05T09:26:02.193Z,32.27
2022-08-05T09:28:34.098Z,28.97
2022-08-05T09:31:22.661Z,29.55
2022-08-05T09:34:05.804Z,33.55
2022-08-05T09:36:45.687Z,28.88
2022-08-05T09:39:41.187Z,29.55
2022-08-05T09:42:17.272Z,30.88
2022-08-05T09:44:55.986Z,25.10
2022-08-05T09:47:36.474Z,28.92
2022-08-05T09:50:18.058Z,29.35
2022-08-05T09:53:02.257Z,26.58
2022-08-05T09:55:57.458Z,26.50
2022-08-05T09:58:23.346Z,28.35
2022-08-05T10:00:55.067Z,29.15
2022-08-05T10:03:22.435Z,25.83
2022-08-05T10:06:14.581Z,26.02
2022-08-05T10:08:42.525Z,28.20
2022-08-05T10:11:17.686Z,26.30
2022-08-05T10:13:47.692Z,29.33
2022-08-05T10:16:32.172Z,28.23
2022-08-05T10:19:08.615Z,27.50
2022-08-05T10:21:40.344Z,26.77
2022-08-05T10:24:15.207Z,27.33
2022-08-05T10:26:51.244Z,25.37
2022-08-05T10:29:24.072Z,27.87
2022-08-05T10:32:53.684Z,23.13
2022-08-05T10:35:00.645Z,22.80
2022-08-05T10:37:40.351Z,23.37
2022-08-05T10:40:35.474Z,24.00
2022-08-05T10:43:23.244Z,25.23
2022-08-05T10:46:06.257Z,23.43
2022-08-05T10:48:57.027Z,22.33
2022-08-05T10:51:29.665Z,22.97
2022-08-05T10:54:01.979Z,21.20
2022-08-05T10:56:49.333Z,19.92
2022-08-05T11:00:02.726Z,19.38
2022-08-05T11:02:37.637Z,17.70
2022-08-05T11:05:10.249Z,16.08
2022-08-05T11:08:21.752Z,17.65
2022-08-05T11:11:01.462Z,15.65
2022-08-05T11:13:57.525Z,13.13
2022-08-05T11:16:47.540Z,13.57
2022-08-05T11:20:10.754Z,13.40
2022-08-05T11:22:43.530Z,11.38
2022-08-05T11:26:04.452Z,10.48
2022-08-05T11:28:30.586Z,9.35
2022-08-05T11:31:06.630Z,9.38
2022-08-05T11:33:54.562Z,8.68
2022-08-05T11:36:44.546Z,7.38
2022-08-05T11:39:15.712Z,7.95
2022-08-05T11:42:02.066Z,8.25
2022-08-05T11:44:54.183Z,8.25
2022-08-05T11:47:48.815Z,6.95
2022-08-05T11:50:14.137Z,5.88
2022-08-05T11:52:43.996Z,6.20
2022-08-05T11:55:15.873Z,5.78
2022-08-05T11:58:10.224Z,6.70
2022-08-05T12:00:38.293Z,7.50
2022-08-05T12:03:28.406Z,5.93
2022-08-05T12:06:06.499Z,7.03
2022-08-05T12:08:50.604Z,5.93
2022-08-05T12:11:20.993Z,5.70
2022-08-05T12:14:14.113Z,4.53
2022-08-05T12:16:47.174Z,3.37
2022-08-05T12:20:17.151Z,3.50
2022-08-05T12:22:06.111Z,3.73
2022-08-05T12:24:40.944Z,2.63
2022-08-05T12:27:25.411Z,3.67
2022-08-05T12:30:10.500Z,2.50
2022-08-05T12:32:50.385Z,1.37
2022-08-05T12:35:21.579Z,1.10
2022-08-05T12:37:49.430Z,1.53
2022-08-05T12:40:28.714Z,1.20
2022-08-05T12:42:57.032Z,1.40
2022-08-05T12:45:23.795Z,4.33
2022-08-05T12:48:27.417Z,1.87
2022-08-05T12:52:11.091Z,0.70
2022-08-05T12:54:16.889Z,0.70
2022-08-05T12:56:53.070Z,0.80
2022-08-05T12:59:46.842Z,1.03
2022-08-05T13:02:16.111Z,0.63
2022-08-05T13:04:52.536Z,0.57
2022-08-05T13:07:56.183Z,0.73
2022-08-05T13:10:12.591Z,0.30
2022-08-05T13:12:50.662Z,0.20
2022-08-05T13:15:41.058Z,0.40
2022-08-05T13:18:20.211Z,0.40
2022-08-05T13:20:49.207Z,0.90
2022-08-05T13:23:22.304Z,1.45
2022-08-05T13:25:59.547Z,0.50
2022-08-05T13:28:28.809Z,0.88
2022-08-05T13:30:57.233Z,1.48
2022-08-05T13:34:22.319Z,0.93
2022-08-05T13:36:13.186Z,1.58
2022-08-05T13:38:42.706Z,2.75
2022-08-05T13:41:11.685Z,1.20
2022-08-05T13:43:44.916Z,1.38
2022-08-05T13:46:44.014Z,0.50
2022-08-05T13:49:10.103Z,1.05
2022-08-05T13:51:41.659Z,1.75
2022-08-05T13:54:15.257Z,0.82
2022-08-05T13:56:45.163Z,1.13
2022-08-05T13:59:21.410Z,0.85
2022-08-05T14:01:56.663Z,1.55
2022-08-05T14:04:49.598Z,1.23
2022-08-05T14:07:26.362Z,1.13
2022-08-05T14:10:13.521Z,1.00
2022-08-05T14:12:42.651Z,0.90
2022-08-05T14:16:07.450Z,1.83
2022-08-05T14:17:59.809Z,1.40
2022-08-05T14:20:31.770Z,2.10
2022-08-05T14:22:59.438Z,1.48
2022-08-05T14:25:28.145Z,1.65
2022-08-05T14:27:56.057Z,2.05
2022-08-05T14:30:22.953Z,1.58
2022-08-05T14:32:53.734Z,1.02
2022-08-05T14:35:22.841Z,1.20
2022-08-05T14:37:55.068Z,1.02
2022-08-05T14:40:24.156Z,2.58
2022-08-05T14:42:51.606Z,1.77
2022-08-05T14:45:18.917Z,1.70
2022-08-05T14:48:02.659Z,4.10
2022-08-05T14:50:31.303Z,3.50
2022-08-05T14:52:59.509Z,3.53
2022-08-05T14:55:38.327Z,2.40
2022-08-05T14:58:11.966Z,1.55
2022-08-05T15:00:59.226Z,3.83
2022-08-05T15:03:34.158Z,2.03
2022-08-05T15:06:14.770Z,2.28
2022-08-05T15:09:01.244Z,1.85
2022-08-05T15:11:50.912Z,1.75
2022-08-05T15:14:33.584Z,1.73
2022-08-05T15:17:04.949Z,1.33
2022-08-05T15:19:32.777Z,1.88
2022-08-05T15:22:00.945Z,1.17
2022-08-05T15:24:28.474Z,1.48
2022-08-05T15:26:55.756Z,1.52
2022-08-05T15:29:23.159Z,1.63
2022-08-05T15:31:52.817Z,1.85
2022-08-05T15:34:33.058Z,1.40
2022-08-05T15:37:06.788Z,0.98
2022-08-05T15:40:59.222Z,1.55
2022-08-05T15:42:53.749Z,2.30
2022-08-05T15:45:16.926Z,1.38
2022-08-05T15:47:45.884Z,1.08
2022-08-05T15:50:15.952Z,1.13
2022-08-05T15:52:54.477Z,1.33
2022-08-05T15:55:25.170Z,2.42
2022-08-05T15:58:16.655Z,1.65
2022-08-05T16:00:57.018Z,2.47
2022-08-05T16:03:32.753Z,0.98
2022-08-05T16:06:00.874Z,1.75
2022-08-05T16:08:30.498Z,1.77
2022-08-05T16:10:58.695Z,2.28
2022-08-05T16:13:34.467Z,3.33
2022-08-05T16:16:03.345Z,2.17
2022-08-05T16:18:33.060Z,4.22
2022-08-05T16:21:04.842Z,2.50
2022-08-05T16:23:33.034Z,2.80
2022-08-05T16:26:26.246Z,2.13
2022-08-05T16:28:54.648Z,1.85
2022-08-05T16:31:22.041Z,2.80
2022-08-05T16:33:49.522Z,1.60
2022-08-05T16:36:20.499Z,2.60
2022-08-05T16:38:55.210Z,2.72
2022-08-05T16:42:12.089Z,3.97
2022-08-05T16:44:15.332Z,1.80
2022-08-05T16:46:56.001Z,3.50
2022-08-05T16:49:23.931Z,1.80
2022-08-05T16:51:51.251Z,2.05
2022-08-05T16:54:28.638Z,2.47
2022-08-05T16:56:57.250Z,4.38
2022-08-05T16:59:23.897Z,1.95
2022-08-05T17:01:54.607Z,3.65
2022-08-05T17:04:29.162Z,2.85
2022-08-05T17:07:03.640Z,2.97
2022-08-05T17:09:57.744Z,3.10
2022-08-05T17:12:51.340Z,3.22
2022-08-05T17:15:15.388Z,1.58
2022-08-05T17:17:43.931Z,1.88
2022-08-05T17:20:14.658Z,2.13
2022-08-05T17:22:43.397Z,2.38
2022-08-05T17:25:22.499Z,3.85
2022-08-05T17:27:58.582Z,3.08
2022-08-05T17:30:28.741Z,2.15
2022-08-05T17:32:55.838Z,2.42
2022-08-05T17:35:22.814Z,2.57
2022-08-05T17:37:50.617Z,3.67
2022-08-05T17:40:18.654Z,2.10
2022-08-05T17:42:51.107Z,2.23
2022-08-05T17:45:24.671Z,1.60
2022-08-05T17:47:55.871Z,3.10
2022-08-05T17:50:28.315Z,1.73
2022-08-05T17:52:59.277Z,1.13
2022-08-05T17:55:27.189Z,2.17
2022-08-05T17:58:02.155Z,1.73
2022-08-05T18:00:29.755Z,4.77
2022-08-05T18:02:57.316Z,2.67
2022-08-05T18:05:28.072Z,1.33
2022-08-05T18:07:56.907Z,4.30
2022-08-05T18:10:24.153Z,2.83
2022-08-05T18:12:51.443Z,1.57
2022-08-05T18:15:18.473Z,2.07
2022-08-05T18:17:58.614Z,1.70
2022-08-05T18:20:32.145Z,1.87
2022-08-05T18:23:00.659Z,6.80
2022-08-05T18:25:45.239Z,2.23
2022-08-05T18:28:16.049Z,3.17
2022-08-05T18:30:45.143Z,1.00
2022-08-05T18:33:13.575Z,1.83
2022-08-05T18:36:01.172Z,2.03
2022-08-05T18:38:30.534Z,2.73
2022-08-05T18:41:56.411Z,1.80
2022-08-05T18:43:48.951Z,2.43
2022-08-05T18:46:20.231Z,1.43
2022-08-05T18:48:51.545Z,2.33
2022-08-05T18:52:04.237Z,1.63
2022-08-05T18:54:31.223Z,6.70
2022-08-05T18:57:01.357Z,1.50
2022-08-05T18:59:43.808Z,1.87
2022-08-05T19:02:38.125Z,1.97
2022-08-05T19:06:06.277Z,2.53
2022-08-05T19:07:52.710Z,1.27
2022-08-05T19:10:26.483Z,3.43
2022-08-05T19:12:55.786Z,3.07
2022-08-05T19:15:59.020Z,2.40
2022-08-05T19:18:21.871Z,1.30
2022-08-05T19:20:52.002Z,1.57
2022-08-05T19:24:03.726Z,0.93
2022-08-05T19:26:05.761Z,2.37
2022-08-05T19:28:40.738Z,2.83
2022-08-05T19:31:09.874Z,1.77
2022-08-05T19:33:55.733Z,2.70
2022-08-05T19:36:26.070Z,2.77
2022-08-05T19:38:55.114Z,2.93
2022-08-05T19:41:58.219Z,1.73
2022-08-05T19:44:14.987Z,3.63
2022-08-05T19:46:43.568Z,1.57
2022-08-05T19:49:12.463Z,2.70
2022-08-05T19:52:08.488Z,2.33
2022-08-05T19:54:32.792Z,2.40
2022-08-05T19:57:02.651Z,1.77
2022-08-05T19:59:59.584Z,4.67
2022-08-05T20:02:20.758Z,1.90
2022-08-05T20:04:48.467Z,3.63
2022-08-05T20:07:15.650Z,1.90
2022-08-05T20:10:04.985Z,3.70
2022-08-05T20:12:48.188Z,1.43
2022-08-05T20:15:48.452Z,1.93
2022-08-05T20:18:10.873Z,1.50
2022-08-05T20:20:55.916Z,2.60
2022-08-05T20:23:40.176Z,0.93
2022-08-05T20:26:16.424Z,1.17
2022-08-05T20:28:53.789Z,1.53
2022-08-05T20:31:36.959Z,1.00
2022-08-05T20:34:10.517Z,2.70
2022-08-05T20:36:42.994Z,0.60
2022-08-05T20:39:13.262Z,0.90
2022-08-05T20:41:43.762Z,1.10
2022-08-05T20:44:17.628Z,2.20
2022-08-05T20:46:55.998Z,2.27
2022-08-05T20:49:24.526Z,2.20
2022-08-05T20:51:54.449Z,2.80
2022-08-05T20:54:22.881Z,0.83
2022-08-05T20:56:52.716Z,1.90
2022-08-05T20:59:26.874Z,1.47
2022-08-05T21:02:07.348Z,1.67
2022-08-05T21:04:36.215Z,2.37
2022-08-05T21:07:04.645Z,1.97
2022-08-05T21:09:31.486Z,1.37
2022-08-05T21:12:10.798Z,3.17
2022-08-05T21:14:46.083Z,3.87
2022-08-05T21:17:13.396Z,1.00
2022-08-05T21:19:47.400Z,1.47
2022-08-05T21:22:23.435Z,1.07
2022-08-05T21:24:52.354Z,1.00
2022-08-05T21:27:24.638Z,3.80
2022-08-05T21:29:54.152Z,1.90
2022-08-05T21:32:27.528Z,1.30
2022-08-05T21:35:09.079Z,1.10
2022-08-05T21:37:53.065Z,1.50
2022-08-05T21:40:24.583Z,0.50
2022-08-05T21:42:53.646Z,2.20
2022-08-05T21:45:24.782Z,4.13
2022-08-05T21:48:06.331Z,1.50
2022-08-05T21:50:36.611Z,1.17
2022-08-05T21:53:08.395Z,2.83
2022-08-05T21:56:04.707Z,1.33
2022-08-05T21:58:32.191Z,2.03
2022-08-05T22:00:59.313Z,1.40
2022-08-05T22:03:52.543Z,1.27
2022-08-05T22:06:13.633Z,1.60
2022-08-05T22:08:42.587Z,1.33
2022-08-05T22:11:12.052Z,2.70
2022-08-05T22:14:32.559Z,0.73
2022-08-05T22:16:42.064Z,2.40
2022-08-05T22:20:00.850Z,1.17
2022-08-05T22:22:04.245Z,1.13
2022-08-05T22:24:52.439Z,0.93
2022-08-05T22:28:09.185Z,2.60
2022-08-05T22:30:35.292Z,1.53
2022-08-05T22:33:15.658Z,0.83
2022-08-05T22:35:48.641Z,3.70
2022-08-05T22:38:17.096Z,1.87
2022-08-05T22:40:49.858Z,1.07
2022-08-05T22:43:36.782Z,1.57
2022-08-05T22:46:13.650Z,2.20
2022-08-05T22:48:50.756Z,0.80
2022-08-05T22:51:23.266Z,1.63
2022-08-05T22:54:05.973Z,0.80
2022-08-05T22:56:32.898Z,1.07
2022-08-05T22:59:04.648Z,1.37
2022-08-05T23:02:05.004Z,1.47
2022-08-05T23:04:34.005Z,2.17
2022-08-05T23:07:01.409Z,1.43
2022-08-05T23:09:53.391Z,0.50
2022-08-05T23:12:17.781Z,1.20
2022-08-05T23:14:44.775Z,1.97
2022-08-05T23:17:24.319Z,1.03
2022-08-05T23:20:00.655Z,1.63
2022-08-05T23:22:29.693Z,1.87
2022-08-05T23:24:57.744Z,0.90
2022-08-05T23:27:31.346Z,1.10
2022-08-05T23:30:10.698Z,1.93
2022-08-05T23:32:37.737Z,1.53
2022-08-05T23:35:12.564Z,1.73
2022-08-05T23:37:39.685Z,0.73
2022-08-05T23:40:07.695Z,1.73
2022-08-05T23:42:37.724Z,1.37
2022-08-05T23:45:13.941Z,0.50
2022-08-05T23:47:48.308Z,2.53
2022-08-05T23:50:19.962Z,1.17
2022-08-05T23:52:49.759Z,3.33
2022-08-05T23:55:18.411Z,3.53
2022-08-05T23:57:49.027Z,2.83
